Time;durP1;ratioP1;P1;durP2;ratioP2;P2;SDS_P1;SDS_P2;PMS_P1;PMS_P2;Temp;Humidity;BMP_temperature;BMP_pressure;BME280_temperature;BME280_humidity;BME280_pressure;Samples;Min_cycle;Max_cycle;Signal;HPM_P1;HPM_P2
2023/12/16 10:47:58;;;;;;;8.53;5.00;;;;;;;11.53;86.25;101391.22;5152949;27;43115;-89
2023/12/16 10:50:31;;;;;;;9.17;5.40;;;;;;;11.51;85.83;101355.88;5150457;27;41764;-90
2023/12/16 10:53:05;;;;;;;10.27;4.87;;;;;;;11.76;84.56;101365.88;5153617;27;41495;-89
2023/12/16 10:55:45;;;;;;;11.40;6.20;;;;;;;12.06;82.98;101386.28;5153084;27;40089;-88
2023/12/16 10:58:35;;;;;;;7.87;5.17;;;;;;;11.98;79.85;101358.22;5152970;27;42876;-89
2023/12/16 11:01:27;;;;;;;9.17;4.83;;;;;;;12.17;78.49;101384.19;5150388;27;42194;-90
2023/12/16 11:04:08;;;;;;;6.27;4.13;;;;;;;11.90;74.98;101357.53;5152666;27;41152;-89
2023/12/16 11:14:39;;;;;;;7.37;3.97;;;;;;;11.83;75.20;101383.41;5134878;27;41865;-89
2023/12/16 11:17:47;;;;;;;7.60;4.33;;;;;;;11.76;74.76;101372.06;5135066;27;42705;-89
2023/12/16 11:20:42;;;;;;;6.03;3.87;;;;;;;11.77;73.47;101370.28;5089082;28;40300;-89
2023/12/16 11:23:37;;;;;;;9.03;4.07;;;;;;;11.64;73.99;101347.59;5073280;28;40724;-89
2023/12/16 11:26:08;;;;;;;7.33;3.83;;;;;;;11.78;73.95;101330.41;5087114;27;42226;-89
2023/12/16 11:31:37;;;;;;;6.80;3.50;;;;;;;11.86;69.26;101319.59;5151611;27;39350;-89
2023/12/16 11:34:10;;;;;;;6.03;3.90;;;;;;;12.23;69.60;101367.22;5152539;27;41609;-89
2023/12/16 11:37:02;;;;;;;8.10;4.50;;;;;;;12.26;68.73;101356.47;5148639;27;41794;-89
2023/12/16 11:40:03;;;;;;;7.90;3.50;;;;;;;12.45;65.99;101380.72;5151972;27;41289;-89
2023/12/16 11:47:24;;;;;;;5.73;3.13;;;;;;;12.52;66.77;101375.16;5168958;27;42676;-89
2023/12/16 11:49:56;;;;;;;7.10;3.33;;;;;;;12.07;67.38;101307.47;5152758;27;42097;-89
2023/12/16 11:53:08;;;;;;;3.87;3.07;;;;;;;12.39;66.94;101373.78;5144375;27;41506;-89
2023/12/16 11:58:34;;;;;;;6.67;3.57;;;;;;;12.06;68.31;101346.44;5138534;27;42031;-89
2023/12/16 12:01:32;;;;;;;4.50;3.57;;;;;;;12.06;68.17;101350.88;5138602;27;42612;-89
2023/12/16 12:12:56;;;;;;;3.33;2.40;;;;;;;11.97;63.40;101348.50;5156621;27;42527;-88
2023/12/16 12:15:36;;;;;;;5.63;3.07;;;;;;;12.02;63.28;101335.94;5138159;27;42480;-88
2023/12/16 12:22:36;;;;;;;4.80;2.47;;;;;;;12.33;65.33;101358.03;5155828;27;41673;-89
2023/12/16 12:25:44;;;;;;;6.43;3.30;;;;;;;12.24;65.51;101315.78;5156541;27;40476;-89
2023/12/16 12:28:20;;;;;;;4.87;3.03;;;;;;;12.18;64.44;101300.91;5158713;27;41520;-89
2023/12/16 12:33:53;;;;;;;5.73;2.77;;;;;;;12.43;62.46;101358.63;5142813;27;39608;-89
2023/12/16 12:36:23;;;;;;;9.63;3.20;;;;;;;11.87;62.42;101284.13;5137582;27;40733;-88
2023/12/16 12:39:06;;;;;;;5.53;2.50;;;;;;;12.18;62.94;101353.19;5137369;27;42178;-88
2023/12/16 12:42:01;;;;;;;4.70;2.70;;;;;;;12.03;62.72;101345.66;5136560;27;41073;-89
2023/12/16 12:44:31;;;;;;;5.93;2.50;;;;;;;11.80;62.82;101310.00;5137484;27;38804;-88
2023/12/16 12:47:04;;;;;;;5.87;2.20;;;;;;;12.00;62.68;101330.66;5137442;27;41114;-89
2023/12/16 12:49:40;;;;;;;6.17;2.60;;;;;;;12.07;61.66;101318.97;5137360;27;42883;-89
2023/12/16 12:52:08;;;;;;;4.87;2.00;;;;;;;12.03;61.00;101305.81;5137395;27;43356;-88
2023/12/16 12:54:45;;;;;;;4.90;2.30;;;;;;;12.10;61.34;101324.19;5137832;27;40458;-88
2023/12/16 12:57:21;;;;;;;3.17;2.03;;;;;;;12.09;60.56;101317.13;5137412;27;42539;-89
2023/12/16 12:59:51;;;;;;;3.20;1.97;;;;;;;12.10;60.80;101329.50;5137984;27;42870;-89
2023/12/16 13:02:19;;;;;;;3.80;1.90;;;;;;;12.05;60.22;101342.03;5137153;27;41007;-88
2023/12/16 13:04:47;;;;;;;4.80;2.00;;;;;;;11.81;59.19;101327.69;5136520;27;38923;-88
2023/12/16 13:07:15;;;;;;;4.10;2.20;;;;;;;11.65;59.25;101326.31;5137348;27;41708;-88
2023/12/16 13:09:43;;;;;;;4.77;2.00;;;;;;;11.57;58.79;101333.63;5154831;27;42069;-88
2023/12/16 13:12:10;;;;;;;4.63;1.97;;;;;;;11.31;58.30;101306.91;5137015;27;42352;-88
2023/12/16 13:14:41;;;;;;;4.53;1.70;;;;;;;11.39;58.52;101344.72;5137578;27;38926;-88
2023/12/16 13:17:13;;;;;;;3.70;2.37;;;;;;;11.28;58.23;101330.84;5137504;27;41102;-88
2023/12/16 13:19:42;;;;;;;4.20;2.17;;;;;;;11.28;59.28;101336.16;5137738;27;41655;-88
2023/12/16 13:22:10;;;;;;;4.07;2.57;;;;;;;11.13;59.56;101309.13;5136973;27;41767;-89
2023/12/16 13:24:37;;;;;;;2.97;2.20;;;;;;;11.05;59.41;101313.75;5137438;27;38745;-88
2023/12/16 13:27:05;;;;;;;5.67;2.53;;;;;;;11.02;60.28;101305.88;5137004;27;41875;-89
2023/12/16 13:29:33;;;;;;;2.47;1.83;;;;;;;10.98;60.21;101290.97;5137426;27;42063;-89
2023/12/16 13:32:01;;;;;;;6.87;2.60;;;;;;;11.08;58.76;101319.00;5154058;27;41160;-90
2023/12/16 13:34:31;;;;;;;3.43;1.83;;;;;;;11.10;59.67;101289.78;5136923;27;38782;-89
2023/12/16 13:36:59;;;;;;;3.33;2.10;;;;;;;11.12;59.63;101266.75;5137026;27;40849;-88
2023/12/16 13:39:26;;;;;;;5.87;2.20;;;;;;;11.23;58.18;101279.72;5154179;27;43454;-88
2023/12/16 13:41:54;;;;;;;5.73;2.67;;;;;;;11.28;58.96;101269.84;5136146;27;41304;-89
2023/12/16 13:44:22;;;;;;;4.70;2.37;;;;;;;11.21;58.62;101263.84;5137261;27;40184;-88
2023/12/16 13:46:50;;;;;;;4.10;2.13;;;;;;;11.11;58.15;101252.63;5136900;27;40356;-89
2023/12/16 13:49:17;;;;;;;5.70;2.70;;;;;;;11.29;58.07;101287.50;5136773;27;43083;-88
2023/12/16 13:51:47;;;;;;;7.50;2.77;;;;;;;11.15;58.14;101266.66;5136892;27;41540;-89
2023/12/16 13:54:15;;;;;;;5.73;2.70;;;;;;;11.09;58.08;101261.53;5137052;27;40248;-88
2023/12/16 13:56:42;;;;;;;7.13;2.40;;;;;;;11.08;58.41;101255.34;5136476;27;41772;-88
2023/12/16 13:59:10;;;;;;;6.00;3.13;;;;;;;11.19;58.61;101259.50;5136943;27;42896;-89
2023/12/16 14:01:38;;;;;;;8.47;2.90;;;;;;;11.14;58.12;101259.59;5154013;27;41204;-88
2023/12/16 14:04:05;;;;;;;4.80;2.43;;;;;;;11.03;57.62;101256.34;5137006;27;41540;-87
2023/12/16 14:06:34;;;;;;;3.47;2.50;;;;;;;10.92;57.90;101254.00;5137358;27;40661;-90
2023/12/16 14:09:03;;;;;;;5.27;2.13;;;;;;;10.48;58.32;101195.94;5136815;27;41969;-89
2023/12/16 14:11:32;;;;;;;6.57;2.57;;;;;;;10.47;58.63;101218.03;5136403;27;40872;-89
2023/12/16 14:13:59;;;;;;;6.83;2.43;;;;;;;10.56;59.06;101257.56;5136906;27;39916;-89
2023/12/16 14:16:27;;;;;;;6.13;2.50;;;;;;;10.52;59.61;101274.44;5136086;27;41341;-88
2023/12/16 14:18:55;;;;;;;3.47;2.07;;;;;;;10.35;58.61;101277.50;5136675;27;43801;-90
2023/12/16 14:21:24;;;;;;;6.77;2.40;;;;;;;10.12;58.73;101254.16;5136001;27;40912;-89
2023/12/16 14:23:51;;;;;;;5.50;2.23;;;;;;;10.05;58.68;101257.81;5136860;27;39836;-89
2023/12/16 14:26:20;;;;;;;5.43;2.33;;;;;;;9.99;59.73;101257.97;5136171;27;41011;-88
2023/12/16 14:28:48;;;;;;;4.30;2.23;;;;;;;9.88;59.09;101259.97;5119292;27;41693;-89
2023/12/16 14:31:16;;;;;;;3.47;2.10;;;;;;;9.79;59.15;101254.84;5136265;27;41145;-88
2023/12/16 14:33:44;;;;;;;5.40;2.47;;;;;;;9.78;59.12;101263.69;5136310;27;40633;-89
2023/12/16 14:36:12;;;;;;;3.70;2.00;;;;;;;9.61;59.33;101251.69;5136069;27;40996;-88
2023/12/16 14:38:39;;;;;;;5.93;2.37;;;;;;;9.48;59.81;101233.47;5153897;27;41746;-90
2023/12/16 14:41:07;;;;;;;3.17;1.83;;;;;;;9.49;60.49;101240.50;5135717;27;41340;-89
2023/12/16 14:43:37;;;;;;;7.00;2.37;;;;;;;9.43;61.17;101236.19;5136598;27;39343;-89
2023/12/16 14:46:06;;;;;;;5.27;2.67;;;;;;;9.44;61.71;101248.50;5136033;27;41645;-89
2023/12/16 14:48:33;;;;;;;4.90;2.30;;;;;;;9.32;61.33;101238.16;5154804;27;43804;-88
2023/12/16 14:51:01;;;;;;;4.73;2.50;;;;;;;9.18;61.64;101226.97;5136675;27;43300;-89
2023/12/16 14:53:29;;;;;;;7.77;2.90;;;;;;;9.10;61.77;101228.91;5136111;27;39084;-88
2023/12/16 14:55:57;;;;;;;4.63;2.60;;;;;;;9.02;62.25;101222.91;5136074;27;40886;-88
2023/12/16 14:58:24;;;;;;;5.50;2.27;;;;;;;8.96;62.41;101223.88;5136580;27;42900;-89
2023/12/16 15:00:53;;;;;;;5.90;2.80;;;;;;;8.96;63.20;101239.72;5136097;27;42126;-89
2023/12/16 15:03:22;;;;;;;7.43;2.40;;;;;;;8.65;63.36;101197.13;5136271;27;38911;-88
2023/12/16 15:05:49;;;;;;;4.60;2.60;;;;;;;8.78;63.36;101230.34;5135573;27;40947;-88
2023/12/16 15:08:19;;;;;;;6.40;2.83;;;;;;;8.61;63.73;101216.56;5153339;27;43230;-87
2023/12/16 15:10:47;;;;;;;5.50;2.67;;;;;;;8.54;63.59;101217.53;5135655;27;41478;-89
